Time;durP1;ratioP1;P1;durP2;ratioP2;P2;SDS_P1;SDS_P2;PMS_P1;PMS_P2;Temp;Humidity;BMP_temperature;BMP_pressure;BME280_temperature;BME280_humidity;BME280_pressure;Samples;Min_cycle;Max_cycle;Signal;HPM_P1;HPM_P2
2022/08/18 00:03:35;;;;;;;17.73;10.70;;;;;;;25.86;62.09;100340.41;5227193;55;1143171;-65
2022/08/18 00:08:40;;;;;;;15.80;11.43;;;;;;;25.82;62.51;100340.02;5229933;56;1143214;-65
2022/08/18 00:13:46;;;;;;;20.55;11.65;;;;;;;25.73;63.15;100345.95;5306332;55;1143154;-65
2022/08/18 00:18:52;;;;;;;15.75;11.38;;;;;;;25.71;63.31;100341.27;5331530;55;1143167;-62
2022/08/18 00:23:58;;;;;;;13.20;11.08;;;;;;;25.59;63.99;100332.49;5322070;55;1143352;-66
2022/08/18 00:29:05;;;;;;;17.87;12.07;;;;;;;25.40;64.03;100334.00;5264983;55;1143212;-64
2022/08/18 00:34:10;;;;;;;16.77;12.00;;;;;;;25.31;65.33;100342.09;5206176;56;1143182;-63
2022/08/18 00:39:16;;;;;;;22.32;12.03;;;;;;;25.31;65.33;100342.09;5196395;56;1143253;-65
2022/08/18 00:44:22;;;;;;;20.50;11.60;;;;;;;25.29;66.06;100340.96;5242030;56;1143214;-66
2022/08/18 00:49:28;;;;;;;19.62;11.93;;;;;;;25.19;66.02;100337.39;5242129;56;1143155;-64
2022/08/18 00:54:35;;;;;;;22.93;12.47;;;;;;;25.17;66.32;100340.84;5242038;56;1143351;-63
2022/08/18 01:00:12;;;;;;;20.85;13.05;;;;;;;25.11;66.54;100339.00;5230386;56;1143167;-63
2022/08/18 01:05:39;;;;;;;25.12;14.20;;;;;;;25.07;67.34;100338.28;5155500;57;1143405;-65
2022/08/18 01:10:44;;;;;;;21.00;12.20;;;;;;;24.87;67.76;100339.22;5150088;56;1141047;-65
2022/08/18 01:15:50;;;;;;;18.23;12.58;;;;;;;24.84;68.13;100338.82;5173965;56;1141385;-65
2022/08/18 01:26:31;;;;;;;16.90;12.98;;;;;;;24.67;69.11;100334.43;5207791;56;1141370;-67
2022/08/18 01:31:48;;;;;;;17.23;13.40;;;;;;;24.68;69.86;100338.80;5220086;56;1141334;-64
2022/08/18 01:36:55;;;;;;;17.07;13.03;;;;;;;24.67;69.79;100343.89;5220138;56;1141382;-65
2022/08/18 01:42:03;;;;;;;14.80;12.45;;;;;;;24.69;69.52;100338.27;5304224;55;1141379;-63
2022/08/18 01:47:10;;;;;;;21.45;13.72;;;;;;;24.58;69.49;100336.25;5222952;55;1139009;-66
2022/08/18 01:52:21;;;;;;;19.23;14.43;;;;;;;24.51;70.42;100333.04;5220110;56;1139098;-67
2022/08/18 01:57:28;;;;;;;17.90;14.77;;;;;;;24.52;70.72;100314.42;5220142;56;1154086;-67
2022/08/18 02:02:34;;;;;;;19.43;14.83;;;;;;;24.53;70.88;100301.73;5216801;56;1143363;-64
2022/08/18 02:07:39;;;;;;;19.70;14.03;;;;;;;24.46;71.64;100303.62;5100660;57;1143061;-63
2022/08/18 02:12:45;;;;;;;23.26;14.26;;;;;;;24.41;71.40;100298.05;5166624;56;1143370;-65
2022/08/18 02:17:51;;;;;;;21.65;15.75;;;;;;;24.41;71.97;100297.53;5207363;56;1143197;-63
2022/08/18 02:22:57;;;;;;;16.62;13.90;;;;;;;24.36;71.95;100298.69;5222304;56;1143206;-63
2022/08/18 02:28:05;;;;;;;21.97;14.60;;;;;;;24.27;72.05;100300.50;5207351;56;1143242;-65
2022/08/18 02:33:11;;;;;;;18.73;15.45;;;;;;;24.13;72.58;100290.23;5181259;56;1143332;-64
2022/08/18 02:38:17;;;;;;;26.35;16.10;;;;;;;24.15;73.10;100296.22;5183467;56;1143246;-66
2022/08/18 02:43:23;;;;;;;21.42;15.15;;;;;;;24.16;73.53;100304.64;5121770;57;1143198;-64
2022/08/18 02:48:35;;;;;;;19.48;15.30;;;;;;;24.14;73.45;100293.20;5121858;57;1143200;-63
2022/08/18 02:53:44;;;;;;;18.60;14.47;;;;;;;24.14;73.37;100302.66;5122185;57;1143232;-64
2022/08/18 02:58:54;;;;;;;25.08;15.68;;;;;;;23.98;73.29;100308.04;5121936;57;1143177;-66
2022/08/18 03:04:01;;;;;;;21.52;15.43;;;;;;;23.89;73.83;100301.18;5206147;56;1143269;-64
2022/08/18 03:09:10;;;;;;;29.18;16.93;;;;;;;23.83;74.05;100305.55;5207132;56;1143585;-66
2022/08/18 03:14:16;;;;;;;33.88;17.65;;;;;;;23.71;74.51;100304.53;5206937;56;1143470;-65
2022/08/18 03:19:24;;;;;;;22.70;16.57;;;;;;;23.78;75.39;100304.02;5130523;56;1143171;-64
2022/08/18 03:24:31;;;;;;;21.80;17.77;;;;;;;23.75;75.12;100309.00;5207061;56;1143056;-65
2022/08/18 03:29:37;;;;;;;21.93;17.32;;;;;;;23.74;75.46;100308.17;5207113;56;1143425;-63
2022/08/18 03:34:43;;;;;;;20.27;16.95;;;;;;;23.84;75.70;100315.30;5207054;56;1143233;-67
2022/08/18 03:39:51;;;;;;;32.20;16.93;;;;;;;23.92;75.68;100314.79;5169192;56;1143172;-63
2022/08/18 03:44:56;;;;;;;71.47;19.82;;;;;;;23.98;75.43;100322.06;5117839;57;1143447;-65
2022/08/18 03:50:02;;;;;;;51.15;18.05;;;;;;;23.82;74.86;100322.81;5117443;57;1143417;-65
2022/08/18 03:55:09;;;;;;;35.85;16.48;;;;;;;23.76;75.68;100330.91;5118138;57;1143169;-65
2022/08/18 04:00:15;;;;;;;34.85;17.75;;;;;;;23.65;75.70;100331.04;5121379;57;1143119;-64
2022/08/18 04:05:21;;;;;;;48.87;19.80;;;;;;;23.70;76.62;100334.44;5132068;57;1143174;-64
2022/08/18 04:10:27;;;;;;;31.27;19.17;;;;;;;23.70;76.83;100339.84;5138614;56;1143214;-64
2022/08/18 04:15:33;;;;;;;57.35;19.50;;;;;;;23.73;77.16;100334.03;5189197;56;1142861;-66
2022/08/18 04:20:39;;;;;;;34.13;17.95;;;;;;;23.75;77.14;100336.00;5220240;56;1143350;-67
2022/08/18 04:25:45;;;;;;;27.45;18.50;;;;;;;23.70;77.14;100330.39;5220433;56;1143373;-65
2022/08/18 04:30:52;;;;;;;31.90;20.35;;;;;;;23.66;77.72;100331.87;5220090;56;1143313;-66
2022/08/18 04:35:58;;;;;;;26.85;20.05;;;;;;;23.60;78.25;100337.57;5220053;56;1143174;-63
2022/08/18 04:41:05;;;;;;;27.95;17.85;;;;;;;23.55;78.36;100340.57;5148249;56;1143286;-67
2022/08/18 04:46:11;;;;;;;34.40;19.25;;;;;;;23.53;78.49;100344.83;5125319;56;1143277;-64
2022/08/18 04:51:20;;;;;;;33.02;19.90;;;;;;;23.42;78.50;100334.63;5195223;56;1141146;-63
2022/08/18 04:56:36;;;;;;;43.33;21.73;;;;;;;23.52;79.60;100342.36;5180955;56;1141083;-64
2022/08/18 05:01:46;;;;;;;80.17;22.73;;;;;;;23.59;79.58;100347.22;5175483;56;1141000;-64
2022/08/18 05:06:53;;;;;;;48.47;22.50;;;;;;;23.56;79.54;100344.41;5152095;57;1141312;-63
2022/08/18 05:11:59;;;;;;;89.90;26.77;;;;;;;23.62;80.13;100340.06;5211599;55;1141115;-61
2022/08/18 05:17:05;;;;;;;30.75;22.98;;;;;;;23.68;80.33;100352.20;5234926;56;1140987;-65
2022/08/18 05:22:18;;;;;;;29.57;22.45;;;;;;;23.74;80.35;100350.03;5199182;55;1141117;-65
2022/08/18 05:27:22;;;;;;;29.73;21.87;;;;;;;23.86;80.62;100347.52;5198342;56;1141062;-64
2022/08/18 05:32:36;;;;;;;40.12;20.05;;;;;;;23.94;80.52;100337.02;5216602;55;1141082;-65
2022/08/18 05:37:49;;;;;;;32.30;21.37;;;;;;;24.02;80.43;100343.02;5216095;56;1141015;-62
2022/08/18 05:42:59;;;;;;;25.43;22.67;;;;;;;24.07;80.62;100337.00;5145709;56;1141074;-62
2022/08/18 05:48:04;;;;;;;31.57;22.17;;;;;;;24.13;81.00;100333.46;5224037;56;1139085;-65
2022/08/18 05:53:18;;;;;;;36.75;20.70;;;;;;;24.34;81.05;100345.37;5069722;57;1143453;-66
2022/08/18 05:58:47;;;;;;;29.10;20.80;;;;;;;24.47;80.66;100346.67;5293042;56;1143242;-66
2022/08/18 06:04:00;;;;;;;29.48;21.55;;;;;;;24.66;80.53;100344.11;5261376;55;1143311;-64
2022/08/18 06:09:33;;;;;;;31.02;20.77;;;;;;;24.97;79.93;100346.89;5252639;55;1143122;-66
2022/08/18 06:14:41;;;;;;;34.03;20.17;;;;;;;24.97;79.93;100346.89;5236542;55;1143307;-65
2022/08/18 06:20:09;;;;;;;24.87;19.65;;;;;;;25.05;79.78;100347.17;5208442;56;1143076;-64
2022/08/18 06:25:26;;;;;;;25.75;20.82;;;;;;;25.22;80.02;100346.41;5237387;56;1143189;-63
2022/08/18 06:30:48;;;;;;;39.80;19.57;;;;;;;25.40;79.06;100352.43;5225115;56;1143295;-64
2022/08/18 06:36:01;;;;;;;26.05;18.57;;;;;;;25.53;79.13;100350.14;5234028;56;1143212;-65
2022/08/18 06:41:36;;;;;;;19.55;16.77;;;;;;;25.75;79.34;100351.98;5212734;56;1143211;-63
2022/08/18 06:47:18;;;;;;;27.05;18.45;;;;;;;26.03;78.97;100350.97;5200853;55;1141038;-66
2022/08/18 06:52:34;;;;;;;21.73;17.65;;;;;;;26.27;77.76;100362.84;5219867;56;1141143;-65
2022/08/18 06:57:54;;;;;;;24.80;17.77;;;;;;;26.51;77.59;100364.66;5206120;56;1141057;-63
2022/08/18 07:03:15;;;;;;;29.07;17.17;;;;;;;26.72;76.10;100372.87;5241063;56;1141064;-65
2022/08/18 07:08:37;;;;;;;24.13;16.73;;;;;;;26.79;74.96;100372.23;5227519;56;1139088;-66
2022/08/18 07:13:45;;;;;;;29.13;16.37;;;;;;;26.76;74.44;100369.14;5210148;56;1143355;-66
2022/08/18 07:18:52;;;;;;;20.52;15.48;;;;;;;26.80;74.32;100364.92;5207563;56;1143225;-64
2022/08/18 07:24:06;;;;;;;18.48;14.33;;;;;;;26.90;74.03;100365.20;5211197;56;1143427;-64
2022/08/18 07:29:17;;;;;;;19.75;15.38;;;;;;;27.00;73.43;100365.53;5206595;56;1143116;-67
2022/08/18 07:34:36;;;;;;;18.95;15.25;;;;;;;27.06;72.58;100362.41;5232801;56;1143583;-64
2022/08/18 07:39:53;;;;;;;20.75;15.90;;;;;;;27.18;72.94;100365.48;5225547;55;1143128;-63
2022/08/18 07:45:02;;;;;;;;;;;;;;;27.31;71.63;100368.53;5210863;56;1143237;-65
2022/08/18 07:50:08;;;;;;;23.45;15.23;;;;;;;27.42;72.20;100372.32;5208933;56;976216;-62
2022/08/18 07:55:24;;;;;;;25.85;16.15;;;;;;;27.56;71.21;100365.62;5222693;56;1141320;-64
2022/08/18 08:00:38;;;;;;;17.10;15.08;;;;;;;27.72;70.23;100367.67;5202107;56;1143156;-64
2022/08/18 08:06:03;;;;;;;27.07;17.10;;;;;;;27.94;69.75;100374.20;5212630;56;1143433;-63
2022/08/18 08:11:32;;;;;;;21.45;15.35;;;;;;;28.15;69.05;100374.12;5209789;56;1143114;-67
2022/08/18 08:17:11;;;;;;;17.70;15.83;;;;;;;28.37;68.16;100383.07;5280113;55;1143144;-63
2022/08/18 08:22:27;;;;;;;19.87;14.60;;;;;;;28.59;67.36;100378.63;5242803;55;1141040;-64
2022/08/18 08:27:59;;;;;;;15.38;13.00;;;;;;;28.74;66.11;100383.56;5298314;55;1141048;-66
2022/08/18 08:33:28;;;;;;;19.57;12.75;;;;;;;28.91;65.23;100378.50;5227827;56;1141166;-64
2022/08/18 08:38:44;;;;;;;30.40;13.45;;;;;;;29.13;64.55;100380.56;5193852;56;1139179;-65
2022/08/18 08:44:32;;;;;;;58.33;13.90;;;;;;;29.27;63.41;100385.99;5173793;56;1143251;-64
2022/08/18 08:49:48;;;;;;;18.25;9.65;;;;;;;29.35;63.45;100385.58;5255629;55;1143092;-67
2022/08/18 08:55:06;;;;;;;13.38;9.63;;;;;;;29.65;62.79;100385.30;5245654;55;1141227;-63
2022/08/18 09:00:14;;;;;;;17.40;9.98;;;;;;;29.88;61.33;100383.78;5244893;55;1141110;-63
2022/08/18 09:05:27;;;;;;;20.77;9.53;;;;;;;30.11;60.12;100388.24;5249555;55;1141167;-64
2022/08/18 09:10:49;;;;;;;12.82;9.73;;;;;;;30.39;57.34;100376.37;5313655;55;1141010;-64
2022/08/18 09:16:08;;;;;;;13.43;8.13;;;;;;;30.55;57.77;100378.26;5245962;55;1141071;-67
2022/08/18 09:21:49;;;;;;;13.72;8.53;;;;;;;30.62;54.67;100379.42;5281762;55;1140996;-65
2022/08/18 09:27:06;;;;;;;14.40;9.17;;;;;;;30.66;53.63;100375.94;5252338;55;1141187;-64
2022/08/18 09:32:25;;;;;;;12.07;8.18;;;;;;;30.64;54.63;100376.72;5286269;55;1141102;-64
2022/08/18 09:41:30;;;;;;;9.58;7.47;;;;;;;30.71;53.60;100380.07;5310799;55;1139067;-63
2022/08/18 09:43:17;;;;;;;12.93;8.15;;;;;;;30.70;50.87;100379.81;5027690;57;1136901;-65
2022/08/18 09:48:36;;;;;;;9.00;7.35;;;;;;;30.80;51.24;100375.00;5234199;56;1138945;-63
2022/08/18 09:53:52;;;;;;;13.53;7.85;;;;;;;30.87;49.98;100367.95;5227734;56;1137022;-65
2022/08/18 09:59:01;;;;;;;8.98;6.90;;;;;;;31.09;51.68;100350.46;5233448;56;1136904;-63
2022/08/18 10:04:28;;;;;;;11.35;7.10;;;;;;;31.29;50.46;100360.80;5230501;56;1139062;-66
2022/08/18 10:09:59;;;;;;;11.55;6.70;;;;;;;31.48;49.90;100351.66;5238422;56;1141089;-66
2022/08/18 10:15:36;;;;;;;15.10;7.70;;;;;;;31.62;46.47;100347.42;5228473;56;1140999;-66
2022/08/18 10:21:16;;;;;;;11.28;7.00;;;;;;;31.72;47.02;100340.68;5222950;56;1140971;-65
2022/08/18 10:26:39;;;;;;;23.67;7.47;;;;;;;31.83;47.31;100335.27;5177805;56;1141273;-66
2022/08/18 10:32:02;;;;;;;9.15;7.30;;;;;;;31.94;47.12;100329.59;5154345;56;1141073;-65
2022/08/18 10:37:22;;;;;;;9.63;6.70;;;;;;;32.08;47.99;100325.88;5211473;56;1138934;-64
2022/08/18 10:43:03;;;;;;;9.18;7.55;;;;;;;32.43;46.67;100320.57;5206899;56;1136848;-63
2022/08/18 10:48:21;;;;;;;9.23;6.90;;;;;;;32.64;44.74;100325.59;5061657;57;1136890;-64
2022/08/18 10:53:56;;;;;;;9.40;6.55;;;;;;;32.66;45.67;100322.58;5178589;56;1137089;-67
2022/08/18 10:59:18;;;;;;;12.70;6.28;;;;;;;32.86;45.45;100311.69;5126541;56;1134812;-66
2022/08/18 11:04:46;;;;;;;15.53;6.62;;;;;;;32.99;43.88;100299.41;5130749;56;1141084;-63
2022/08/18 11:09:57;;;;;;;16.93;7.08;;;;;;;33.20;44.27;100291.45;5134388;56;1141178;-63
2022/08/18 11:15:16;;;;;;;9.30;6.55;;;;;;;33.34;43.05;100287.64;5204348;56;1141131;-66
2022/08/18 11:20:26;;;;;;;19.85;7.47;;;;;;;33.44;40.31;100284.36;5205848;56;1139121;-64
2022/08/18 11:25:37;;;;;;;21.07;7.53;;;;;;;33.48;41.63;100277.20;5316173;55;1140945;-66
2022/08/18 11:30:45;;;;;;;12.57;6.87;;;;;;;33.44;41.41;100277.52;5318385;55;1141287;-65
2022/08/18 11:35:59;;;;;;;21.85;7.50;;;;;;;33.52;42.42;100270.63;5236865;55;1141033;-63
2022/08/18 11:41:23;;;;;;;12.30;7.60;;;;;;;33.59;41.31;100271.18;5198991;56;1141074;-67
2022/08/18 11:46:33;;;;;;;17.25;7.17;;;;;;;33.74;42.20;100257.98;5249928;55;1141122;-68
2022/08/18 11:51:43;;;;;;;17.27;7.12;;;;;;;33.74;40.92;100264.30;5306822;55;1141059;-64
2022/08/18 11:56:49;;;;;;;11.33;6.75;;;;;;;33.65;41.58;100256.34;5298507;55;1140986;-64
2022/08/18 12:01:58;;;;;;;14.98;6.80;;;;;;;33.56;40.26;100258.56;5194837;56;1141378;-66
2022/08/18 12:07:14;;;;;;;15.78;6.35;;;;;;;33.42;40.93;100249.54;5251654;55;1141146;-65
2022/08/18 12:12:30;;;;;;;8.10;6.33;;;;;;;33.26;40.40;100249.28;5247160;55;1141047;-66
2022/08/18 12:17:35;;;;;;;11.05;7.00;;;;;;;33.17;39.82;100241.29;5214154;55;1139076;-66
2022/08/18 12:22:43;;;;;;;12.90;7.10;;;;;;;33.18;40.52;100231.97;5251657;55;1140954;-67
2022/08/18 12:27:49;;;;;;;11.22;6.53;;;;;;;33.23;40.10;100224.30;5242836;55;1138964;-66
2022/08/18 12:32:54;;;;;;;11.53;5.92;;;;;;;33.32;39.15;100225.41;5271118;55;1138901;-63
2022/08/18 12:38:00;;;;;;;10.60;6.10;;;;;;;33.41;39.41;100221.84;5261416;55;1138997;-64
2022/08/18 12:43:06;;;;;;;11.35;6.12;;;;;;;33.71;39.27;100220.95;5268876;55;1138964;-65
2022/08/18 12:48:11;;;;;;;80.05;8.88;;;;;;;34.05;38.31;100217.02;5261041;55;1139191;-62
2022/08/18 12:53:17;;;;;;;13.60;6.15;;;;;;;34.13;36.21;100216.42;5250478;55;1138979;-65
2022/08/18 12:58:23;;;;;;;8.80;6.53;;;;;;;34.10;37.26;100225.21;5233701;55;1139003;-67
2022/08/18 13:03:29;;;;;;;10.40;6.50;;;;;;;34.31;37.76;100209.50;5204599;56;1137218;-63
2022/08/18 13:08:34;;;;;;;13.15;5.40;;;;;;;34.43;35.77;100209.97;5164678;56;1139121;-64
2022/08/18 13:13:41;;;;;;;8.58;5.20;;;;;;;34.54;36.88;100203.30;5152448;56;1138824;-67
2022/08/18 13:18:47;;;;;;;9.80;5.85;;;;;;;34.50;34.98;100210.48;5182327;56;1136859;-63
2022/08/18 13:23:53;;;;;;;9.48;7.28;;;;;;;34.32;34.99;100212.52;5107663;56;1136927;-66
2022/08/18 13:34:12;;;;;;;11.10;5.03;;;;;;;34.09;34.64;100222.19;5189142;55;46324;-67
2022/08/18 13:39:19;;;;;;;16.25;5.42;;;;;;;33.78;34.75;100224.78;5016999;58;1134954;-63
2022/08/18 13:44:25;;;;;;;12.68;5.40;;;;;;;33.65;35.43;100213.00;5027852;57;1138979;-63
2022/08/18 13:49:30;;;;;;;7.62;5.17;;;;;;;33.69;36.08;100205.31;4888188;58;1139078;-64
2022/08/18 13:54:35;;;;;;;11.05;5.47;;;;;;;33.83;34.71;100204.20;4959412;59;1137326;-65
2022/08/18 13:59:41;;;;;;;9.05;6.58;;;;;;;33.86;35.26;100207.21;5115901;57;1137218;-62
2022/08/18 14:04:48;;;;;;;8.88;5.17;;;;;;;33.96;35.18;100213.20;5052542;58;1134885;-64
2022/08/18 14:09:53;;;;;;;6.90;5.28;;;;;;;34.07;35.03;100202.44;5052601;57;1139133;-64
2022/08/18 14:14:59;;;;;;;14.03;5.57;;;;;;;34.14;35.74;100203.52;5127839;56;1139075;-63
2022/08/18 14:30:54;;;;;;;6.22;5.47;;;;;;;34.16;33.76;100191.70;5103731;57;1141121;-66
2022/08/18 14:35:59;;;;;;;5.35;4.85;;;;;;;34.13;34.51;100183.48;5156854;56;1138999;-63
2022/08/18 14:41:11;;;;;;;8.70;4.58;;;;;;;34.19;34.27;100187.03;5083537;57;1139005;-64
2022/08/18 14:46:16;;;;;;;9.70;4.83;;;;;;;34.21;34.19;100181.53;5080700;57;1139151;-64
2022/08/18 14:51:22;;;;;;;10.93;5.22;;;;;;;34.19;33.91;100184.28;5143270;57;1139096;-66
2022/08/18 14:56:28;;;;;;;19.15;5.60;;;;;;;34.14;34.36;100175.52;5143033;57;1141392;-63
2022/08/18 15:01:36;;;;;;;10.95;4.90;;;;;;;34.10;34.27;100179.09;5142767;56;1141158;-64
2022/08/18 15:06:43;;;;;;;6.67;5.15;;;;;;;34.03;34.10;100175.86;5142691;56;1141271;-67
2022/08/18 15:11:50;;;;;;;12.00;5.08;;;;;;;33.86;34.61;100180.33;5154437;56;1139106;-65
2022/08/18 15:16:55;;;;;;;15.05;5.37;;;;;;;33.79;34.39;100167.45;5148421;57;1141188;-64
2022/08/18 15:27:38;;;;;;;10.35;5.83;;;;;;;33.79;35.24;100155.09;4979942;58;1139106;-64
2022/08/18 15:32:44;;;;;;;10.70;5.80;;;;;;;33.76;35.97;100145.53;4968175;57;1141285;-65
2022/08/18 15:37:52;;;;;;;14.43;7.08;;;;;;;33.73;35.91;100147.43;4927745;58;1141160;-64
2022/08/18 15:43:00;;;;;;;9.83;6.17;;;;;;;33.62;36.06;100145.80;5125503;57;1141071;-64
2022/08/18 15:48:06;;;;;;;5.97;5.12;;;;;;;33.51;36.10;100144.20;5139827;57;1139002;-66
2022/08/18 15:53:14;;;;;;;9.03;5.35;;;;;;;33.37;36.21;100139.05;5114355;57;1139024;-64
2022/08/18 15:58:20;;;;;;;9.83;5.28;;;;;;;33.26;36.53;100137.44;5086475;56;1139215;-64
2022/08/18 16:03:26;;;;;;;12.47;5.45;;;;;;;33.16;36.51;100156.05;5116570;57;1138984;-63
2022/08/18 16:08:32;;;;;;;12.98;5.87;;;;;;;33.01;36.51;100152.78;5050326;58;1141257;-67
2022/08/18 16:13:38;;;;;;;19.07;6.20;;;;;;;32.88;36.59;100157.45;5029762;58;1139019;-65
2022/08/18 16:18:45;;;;;;;11.05;5.80;;;;;;;32.76;37.25;100166.50;4959024;59;1139011;-64
2022/08/18 16:23:54;;;;;;;13.05;5.42;;;;;;;32.73;37.69;100163.76;5021016;58;1139099;-64
2022/08/18 16:29:00;;;;;;;13.15;5.60;;;;;;;32.65;37.65;100168.39;4932190;58;1139412;-64
2022/08/18 16:34:06;;;;;;;7.67;6.67;;;;;;;32.56;37.52;100162.34;4955591;58;1139545;-64
2022/08/18 16:39:12;;;;;;;9.28;5.70;;;;;;;32.50;37.91;100169.20;4963474;59;1137062;-64
2022/08/18 16:44:18;;;;;;;17.52;5.97;;;;;;;32.44;37.93;100178.48;4952036;59;1136965;-65
2022/08/18 16:49:24;;;;;;;17.77;7.25;;;;;;;32.35;38.33;100163.70;5043552;58;1139251;-65
2022/08/18 16:54:31;;;;;;;10.50;5.97;;;;;;;32.34;38.54;100161.23;5111898;57;1139103;-63
2022/08/18 17:05:02;;;;;;;11.10;5.80;;;;;;;32.10;39.15;100158.13;4974578;58;1139277;-65
2022/08/18 17:10:09;;;;;;;20.08;6.78;;;;;;;31.98;39.73;100153.44;5031967;58;1138908;-65
2022/08/18 17:15:15;;;;;;;28.38;6.85;;;;;;;31.92;40.16;100144.41;4992720;58;1139024;-62
2022/08/18 17:20:21;;;;;;;9.93;5.70;;;;;;;31.85;40.39;100141.64;4991326;58;1136926;-65
2022/08/18 17:25:28;;;;;;;11.70;6.42;;;;;;;31.82;40.59;100145.72;4945250;59;1260926;-64
2022/08/18 17:30:39;;;;;;;21.73;7.10;;;;;;;31.72;40.80;100141.59;5011924;58;1141086;-63
2022/08/18 17:35:46;;;;;;;19.30;6.20;;;;;;;31.66;41.21;100135.81;5062230;57;1140719;-62
2022/08/18 17:40:56;;;;;;;15.20;6.58;;;;;;;31.56;41.39;100135.20;5023841;57;1141128;-63
2022/08/18 17:46:21;;;;;;;17.35;7.05;;;;;;;31.43;41.72;100128.31;5207489;56;1141370;-63
2022/08/18 17:51:36;;;;;;;24.12;6.97;;;;;;;31.35;41.82;100130.16;5194309;56;1141106;-66
2022/08/18 17:56:55;;;;;;;16.17;7.17;;;;;;;31.25;42.12;100136.13;5180850;56;1141080;-61
2022/08/18 18:02:20;;;;;;;13.13;6.75;;;;;;;31.14;42.30;100143.45;5169361;56;1141084;-66
2022/08/18 18:07:33;;;;;;;16.15;6.50;;;;;;;31.07;42.60;100150.46;5200170;56;1141215;-62
2022/08/18 18:12:39;;;;;;;12.13;6.67;;;;;;;30.97;42.79;100165.96;5231560;56;1141182;-63
2022/08/18 18:17:45;;;;;;;20.75;7.00;;;;;;;30.86;43.00;100167.77;5191186;56;1141108;-63
2022/08/18 18:22:52;;;;;;;17.65;7.30;;;;;;;30.78;43.32;100176.45;5110825;57;1141169;-64
2022/08/18 18:27:58;;;;;;;21.35;7.17;;;;;;;30.69;43.48;100181.58;5221873;56;1141244;-64
2022/08/18 18:33:17;;;;;;;20.20;6.35;;;;;;;30.58;43.78;100186.64;5230107;56;1141308;-64
2022/08/18 18:38:35;;;;;;;15.55;6.03;;;;;;;30.48;44.17;100198.80;5164430;56;1141350;-62
2022/08/18 18:43:48;;;;;;;12.20;7.00;;;;;;;30.44;44.44;100206.67;5079460;58;1141108;-63
2022/08/18 18:49:22;;;;;;;23.80;8.20;;;;;;;30.37;44.83;100212.06;5157028;57;1141219;-64
2022/08/18 18:55:04;;;;;;;47.38;12.63;;;;;;;30.31;45.06;100212.54;5153831;57;1139039;-64
2022/08/18 19:00:20;;;;;;;12.93;7.33;;;;;;;30.23;45.34;100219.00;5153846;57;1141157;-62
2022/08/18 19:05:57;;;;;;;15.83;7.30;;;;;;;30.04;45.79;100213.87;5150789;56;1139022;-62
2022/08/18 19:11:23;;;;;;;14.53;6.87;;;;;;;29.90;46.25;100216.66;5155392;55;1141198;-66
2022/08/18 19:16:35;;;;;;;9.60;7.80;;;;;;;29.77;46.46;100227.13;5232500;55;1141050;-64
2022/08/18 19:21:42;;;;;;;11.10;6.78;;;;;;;29.65;46.72;100258.02;5195651;56;1139023;-64
2022/08/18 19:26:55;;;;;;;17.60;7.55;;;;;;;29.46;47.31;100226.69;5034111;58;1141022;-62
2022/08/18 19:32:20;;;;;;;18.35;7.85;;;;;;;29.42;47.56;100243.77;5118540;56;1141121;-62
2022/08/18 19:37:39;;;;;;;11.25;7.40;;;;;;;29.31;47.79;100231.88;5089203;57;1141115;-63
2022/08/18 19:43:01;;;;;;;17.57;8.08;;;;;;;29.21;48.05;100226.25;5137879;56;1141082;-66
2022/08/18 19:48:23;;;;;;;11.95;6.62;;;;;;;29.10;48.43;100217.09;5163734;57;1141094;-64
2022/08/18 19:53:49;;;;;;;;;;;;;;;29.02;48.80;100220.25;5167851;57;1141192;-64
2022/08/18 19:59:31;;;;;;;9.63;7.08;;;;;;;28.93;49.25;100223.89;5166843;56;976359;-63
2022/08/18 20:05:12;;;;;;;8.83;7.28;;;;;;;28.80;49.79;100218.77;5036720;58;1134880;-62
2022/08/18 20:10:35;;;;;;;;;;;;;;;28.70;49.95;100213.13;5137573;56;1137164;-66
2022/08/18 20:16:11;;;;;;;12.67;6.30;;;;;;;28.58;50.26;100215.89;5167221;56;974413;-63
2022/08/18 20:21:21;;;;;;;16.27;7.67;;;;;;;28.50;50.57;100208.13;5154977;56;1139102;-60
2022/08/18 20:26:40;;;;;;;13.68;7.87;;;;;;;28.44;50.79;100201.47;5154543;56;1141112;-64
2022/08/18 20:31:59;;;;;;;11.73;7.53;;;;;;;28.39;51.30;100204.11;5126916;56;1141374;-63
2022/08/18 20:37:08;;;;;;;14.23;7.95;;;;;;;28.26;51.82;100200.59;5132734;56;1141105;-64
2022/08/18 20:42:24;;;;;;;13.88;8.13;;;;;;;28.15;52.08;100191.92;5172291;56;1141072;-64
2022/08/18 20:48:04;;;;;;;11.33;8.30;;;;;;;28.05;52.59;100183.57;5167932;56;1141087;-64
2022/08/18 20:53:41;;;;;;;13.00;8.43;;;;;;;27.90;53.26;100168.31;5222332;56;1141100;-64
2022/08/18 20:58:58;;;;;;;15.32;8.38;;;;;;;27.79;53.86;100167.28;5221916;56;1141218;-63
2022/08/18 21:04:04;;;;;;;12.53;8.20;;;;;;;27.72;54.49;100169.30;5137765;56;1141167;-66
2022/08/18 21:09:10;;;;;;;21.97;8.65;;;;;;;27.69;54.69;100171.66;5173310;56;1141500;-64
2022/08/18 21:14:26;;;;;;;13.98;7.30;;;;;;;27.61;55.53;100164.72;5146095;56;1141185;-62
2022/08/18 21:19:35;;;;;;;34.65;9.05;;;;;;;27.54;55.91;100158.02;5145908;57;1141213;-61
2022/08/18 21:24:49;;;;;;;15.20;8.38;;;;;;;27.47;55.99;100151.89;5113362;57;1139141;-63
2022/08/18 21:30:03;;;;;;;14.23;7.00;;;;;;;27.43;56.00;100147.17;5145957;57;1139286;-62
2022/08/18 21:35:34;;;;;;;13.10;7.78;;;;;;;27.36;56.27;100132.88;5140480;57;1139281;-61
2022/08/18 21:40:46;;;;;;;67.62;10.68;;;;;;;27.31;56.52;100145.83;5067224;57;1139111;-63
2022/08/18 21:45:58;;;;;;;11.20;8.20;;;;;;;27.20;56.97;100135.78;5068265;58;1141127;-64
2022/08/18 21:51:00;;;;;;;12.13;8.10;;;;;;;27.08;57.44;100124.10;5069888;58;1139137;-64
2022/08/18 21:56:07;;;;;;;18.95;7.85;;;;;;;26.96;57.98;100119.52;5070696;58;1139271;-64
2022/08/18 22:01:32;;;;;;;11.88;8.25;;;;;;;26.89;58.45;100120.64;5070575;58;1139039;-65
2022/08/18 22:06:43;;;;;;;10.20;7.50;;;;;;;26.82;59.18;100142.48;5069866;58;1147154;-64
2022/08/18 22:17:34;;;;;;;28.20;8.80;;;;;;;26.76;59.64;100167.83;5063175;58;1141176;-62
2022/08/18 22:28:04;;;;;;;12.78;8.23;;;;;;;26.70;60.30;100173.38;5154389;57;1141190;-65
2022/08/18 22:33:10;;;;;;;11.25;6.83;;;;;;;26.65;60.22;100172.70;5154187;57;1141253;-62
2022/08/18 22:38:17;;;;;;;16.05;8.93;;;;;;;26.58;60.13;100170.64;5131152;56;1141153;-62
2022/08/18 22:43:24;;;;;;;9.45;8.55;;;;;;;26.50;60.28;100162.29;5070559;58;1141260;-63
2022/08/18 22:48:30;;;;;;;10.90;8.98;;;;;;;26.46;60.55;100158.91;5064779;58;1138708;-61
2022/08/18 22:53:36;;;;;;;10.68;8.25;;;;;;;26.40;60.71;100159.85;5060021;58;1141150;-64
2022/08/18 22:58:42;;;;;;;11.75;8.68;;;;;;;26.32;61.03;100159.63;5067810;57;1141207;-62
2022/08/18 23:03:48;;;;;;;15.28;8.90;;;;;;;26.23;61.24;100159.11;5150248;57;1141189;-64
2022/08/18 23:08:54;;;;;;;13.98;9.13;;;;;;;26.20;61.86;100158.73;5143375;57;1141337;-65
2022/08/18 23:14:02;;;;;;;19.32;9.43;;;;;;;26.12;61.96;100161.25;5079871;57;1141250;-65
2022/08/18 23:19:07;;;;;;;16.37;8.68;;;;;;;26.09;62.34;100158.99;5065067;57;1141258;-62
2022/08/18 23:24:16;;;;;;;14.93;8.58;;;;;;;26.03;62.08;100157.72;5143261;57;1141141;-61
2022/08/18 23:29:23;;;;;;;11.53;8.65;;;;;;;25.97;62.79;100151.87;5154134;57;1141232;-62
2022/08/18 23:34:30;;;;;;;12.07;8.75;;;;;;;25.94;62.54;100150.44;5154074;57;1141119;-64
2022/08/18 23:39:38;;;;;;;12.45;9.45;;;;;;;25.94;62.63;100155.86;5108241;57;1141226;-65
2022/08/18 23:44:44;;;;;;;15.08;8.90;;;;;;;25.88;62.91;100149.45;5070386;58;1141067;-63
2022/08/18 23:49:52;;;;;;;20.27;9.05;;;;;;;25.81;63.11;100150.08;5061893;58;1141213;-63
2022/08/18 23:54:57;;;;;;;27.58;9.73;;;;;;;25.78;63.28;100145.64;5056913;57;1141338;-63
